Time;durP1;ratioP1;P1;durP2;ratioP2;P2;SDS_P1;SDS_P2;PMS_P1;PMS_P2;Temp;Humidity;BMP_temperature;BMP_pressure;BME280_temperature;BME280_humidity;BME280_pressure;Samples;Min_cycle;Max_cycle;Signal;HPM_P1;HPM_P2
2022/06/20 00:02:02;;;;;;;;;;;;;;;;;;12730043;27;19926;-81
2022/06/20 00:08:03;;;;;;;;;;;;;;;;;;12730729;27;20422;-81
2022/06/20 00:14:05;;;;;;;;;;;;;;;;;;12729877;27;19912;-81
2022/06/20 00:20:06;;;;;;;;;;;;;;;;;;12729604;28;19911;-80
2022/06/20 00:26:08;;;;;;;;;;;;;;;;;;12729373;28;19926;-81
2022/06/20 00:32:09;;;;;;;;;;;;;;;;;;12713026;27;19918;-81
2022/06/20 00:38:11;;;;;;;;;;;;;;;;;;12723600;27;19930;-80
2022/06/20 00:44:12;;;;;;;;;;;;;;;;;;12739727;27;20368;-80
2022/06/20 00:50:14;;;;;;;;;;;;;;;;;;12759488;27;20029;-81
2022/06/20 00:56:15;;;;;;;;;;;;;;;;;;12761180;27;19918;-80
2022/06/20 01:02:17;;;;;;;;;;;;;;;;;;12764857;27;20311;-79
2022/06/20 01:08:18;;;;;;;;;;;;;;;;;;12771308;27;20280;-81
2022/06/20 01:14:22;;;;;;;;;;;;;;;;;;12740598;27;19918;-81
2022/06/20 01:20:23;;;;;;;;;;;;;;;;;;12737465;27;19915;-81
2022/06/20 01:26:25;;;;;;;;;;;;;;;;;;12755248;27;19911;-81
2022/06/20 01:32:27;;;;;;;;;;;;;;;;;;12754911;27;20284;-81
2022/06/20 01:38:28;;;;;;;;;;;;;;;;;;12738102;27;19919;-81
2022/06/20 01:44:30;;;;;;;;;;;;;;;;;;12754443;27;20276;-81
2022/06/20 01:50:31;;;;;;;;;;;;;;;;;;12736248;27;19912;-81
2022/06/20 01:56:32;;;;;;;;;;;;;;;;;;12753704;27;19916;-80
2022/06/20 02:02:34;;;;;;;;;;;;;;;;;;12735169;27;19927;-81
2022/06/20 02:08:35;;;;;;;;;;;;;;;;;;12718056;27;20279;-81
2022/06/20 02:14:37;;;;;;;;;;;;;;;;;;12735085;27;19912;-80
2022/06/20 02:20:45;;;;;;;;;;;;;;;;;;12734950;27;20378;-81
2022/06/20 02:26:47;;;;;;;;;;;;;;;;;;12753001;27;20371;-80
2022/06/20 02:32:48;;;;;;;;;;;;;;;;;;12734282;27;19915;-81
2022/06/20 02:38:50;;;;;;;;;;;;;;;;;;12733558;27;19912;-81
2022/06/20 02:44:51;;;;;;;;;;;;;;;;;;12732877;27;19919;-81
2022/06/20 02:50:53;;;;;;;;;;;;;;;;;;12751511;27;19918;-81
2022/06/20 02:56:58;;;;;;;;;;;;;;;;;;12750418;27;19916;-81
2022/06/20 03:03:00;;;;;;;;;;;;;;;;;;12750906;27;20283;-81
2022/06/20 03:09:01;;;;;;;;;;;;;;;;;;12731794;27;19930;-80
2022/06/20 03:15:03;;;;;;;;;;;;;;;;;;12732426;27;20285;-80
2022/06/20 03:21:04;;;;;;;;;;;;;;;;;;12731856;27;19923;-81
2022/06/20 03:27:06;;;;;;;;;;;;;;;;;;12750009;27;19912;-80
2022/06/20 03:33:11;;;;;;;;;;;;;;;;;;12749267;27;20287;-80
2022/06/20 03:39:12;;;;;;;;;;;;;;;;;;12731074;27;20100;-82
2022/06/20 03:45:14;;;;;;;;;;;;;;;;;;12749769;27;19926;-80
2022/06/20 03:51:15;;;;;;;;;;;;;;;;;;12748539;27;20409;-80
2022/06/20 03:57:17;;;;;;;;;;;;;;;;;;12729890;27;20001;-80
2022/06/20 04:03:18;;;;;;;;;;;;;;;;;;12730249;27;19923;-81
2022/06/20 04:15:54;;;;;;;;;;;;;;;;;;12713057;27;19918;-80
2022/06/20 04:21:55;;;;;;;;;;;;;;;;;;12747483;27;19926;-80
2022/06/20 04:27:57;;;;;;;;;;;;;;;;;;12730209;28;20028;-79
2022/06/20 04:33:58;;;;;;;;;;;;;;;;;;12749713;28;19946;-80
2022/06/20 04:40:00;;;;;;;;;;;;;;;;;;12747476;28;20126;-79
2022/06/20 04:46:01;;;;;;;;;;;;;;;;;;12778528;28;19919;-80
2022/06/20 04:52:02;;;;;;;;;;;;;;;;;;12748764;28;19918;-80
2022/06/20 04:58:04;;;;;;;;;;;;;;;;;;12728782;28;19916;-80
2022/06/20 05:04:05;;;;;;;;;;;;;;;;;;12711780;28;19923;-80
2022/06/20 05:10:07;;;;;;;;;;;;;;;;;;12731526;28;19926;-79
2022/06/20 05:16:08;;;;;;;;;;;;;;;;;;12718400;28;19965;-80
2022/06/20 05:22:11;;;;;;;;;;;;;;;;;;12753784;27;19920;-80
2022/06/20 05:28:12;;;;;;;;;;;;;;;;;;12756737;27;20365;-80
2022/06/20 05:34:14;;;;;;;;;;;;;;;;;;12736083;27;19938;-79
2022/06/20 05:40:15;;;;;;;;;;;;;;;;;;12736683;27;19918;-79
2022/06/20 05:46:17;;;;;;;;;;;;;;;;;;12709634;27;19931;-79
2022/06/20 05:52:18;;;;;;;;;;;;;;;;;;12685191;28;19912;-85
2022/06/20 05:58:20;;;;;;;;;;;;;;;;;;12689518;28;19912;-85
2022/06/20 06:04:21;;;;;;;;;;;;;;;;;;12688103;28;19930;-83
2022/06/20 06:10:23;;;;;;;;;;;;;;;;;;12705922;28;19962;-84
2022/06/20 06:22:45;;;;;;;;;;;;;;;;;;12702950;28;19938;-85
2022/06/20 06:28:46;;;;;;;;;;;;;;;;;;12666702;28;19911;-84
2022/06/20 06:34:48;;;;;;;;;;;;;;;;;;12666411;28;20368;-84
2022/06/20 06:40:49;;;;;;;;;;;;;;;;;;12684876;28;19912;-84
2022/06/20 06:46:51;;;;;;;;;;;;;;;;;;12687466;28;19922;-80
2022/06/20 06:52:52;;;;;;;;;;;;;;;;;;12682512;28;19912;-79
2022/06/20 06:58:55;;;;;;;;;;;;;;;;;;12662386;28;19919;-80
2022/06/20 07:04:57;;;;;;;;;;;;;;;;;;12680820;28;19924;-81
2022/06/20 07:10:58;;;;;;;;;;;;;;;;;;12681331;28;19912;-82
2022/06/20 07:17:00;;;;;;;;;;;;;;;;;;12688948;22;19935;-84
2022/06/20 07:23:02;;;;;;;;;;;;;;;;;;12645984;28;19920;-84
2022/06/20 07:42:09;;;;;;;2.20;2.03;;;;;;;;;;12704594;27;1389675;-82
2022/06/20 07:48:14;;;;;;;3.38;2.50;;;;;;;;;;12748908;27;20050;-82
2022/06/20 07:54:19;;;;;;;2.38;2.17;;;;;;;;;;12741776;27;20507;-88
2022/06/20 08:00:22;;;;;;;2.28;1.83;;;;;;;;;;12725636;27;20042;-82
2022/06/20 08:06:27;;;;;;;1.60;1.50;;;;;;;;;;12708883;28;20036;-82
2022/06/20 08:12:41;;;;;;;2.65;1.80;;;;;;;;;;12739609;27;20274;-83
2022/06/20 08:18:43;;;;;;;1.40;1.30;;;;;;;;;;12722549;27;20036;-83
2022/06/20 08:24:48;;;;;;;1.40;1.30;;;;;;;;;;12748973;27;20031;-82
2022/06/20 08:30:54;;;;;;;1.63;1.10;;;;;;;;;;12745293;27;20039;-82
2022/06/20 08:37:08;;;;;;;1.88;1.77;;;;;;;;;;12725426;28;20074;-82
2022/06/20 08:43:20;;;;;;;3.92;1.92;;;;;;;;;;12688594;28;20039;-86
2022/06/20 08:49:41;;;;;;;1.38;1.27;;;;;;;;;;12704897;28;20039;-86
2022/06/20 08:55:43;;;;;;;1.27;1.13;;;;;;;;;;12687375;28;20043;-86
2022/06/20 09:01:48;;;;;;;1.52;1.42;;;;;;;;;;12687234;28;20034;-86
2022/06/20 09:08:08;;;;;;;2.25;1.77;;;;;;;;;;12685591;28;20048;-84
2022/06/20 09:14:31;;;;;;;2.00;1.70;;;;;;;;;;12632808;28;20376;-86
2022/06/20 09:20:32;;;;;;;3.03;1.65;;;;;;;;;;12666142;28;20495;-87
2022/06/20 09:26:37;;;;;;;2.13;1.48;;;;;;;;;;12698717;28;20043;-80
2022/06/20 09:32:54;;;;;;;2.20;1.77;;;;;;;;;;12683469;28;20468;-79
2022/06/20 09:39:14;;;;;;;3.20;1.77;;;;;;;;;;12682069;28;20060;-80
2022/06/20 09:45:35;;;;;;;1.40;1.30;;;;;;;;;;12683497;28;20038;-79
2022/06/20 09:51:42;;;;;;;2.13;1.53;;;;;;;;;;12701086;28;20047;-84
2022/06/20 09:57:50;;;;;;;2.15;2.00;;;;;;;;;;12669805;28;20028;-86
2022/06/20 10:03:55;;;;;;;2.78;1.88;;;;;;;;;;12689822;28;20035;-84
2022/06/20 10:10:13;;;;;;;6.15;1.67;;;;;;;;;;12685223;28;20074;-85
2022/06/20 10:16:26;;;;;;;2.47;2.22;;;;;;;;;;12689152;28;20036;-86
2022/06/20 10:22:34;;;;;;;4.45;2.17;;;;;;;;;;12631868;28;20428;-84
2022/06/20 10:28:36;;;;;;;2.13;2.00;;;;;;;;;;12651084;28;20153;-85
2022/06/20 10:35:00;;;;;;;1.80;1.70;;;;;;;;;;12650956;28;20036;-86
2022/06/20 10:41:02;;;;;;;1.80;1.58;;;;;;;;;;12631679;28;20051;-81
2022/06/20 10:47:11;;;;;;;1.50;1.40;;;;;;;;;;12628609;28;20042;-79
2022/06/20 10:53:17;;;;;;;1.50;1.40;;;;;;;;;;12629680;28;20043;-83
2022/06/20 10:59:51;;;;;;;1.20;1.20;;;;;;;;;;12666517;28;20035;-78
2022/06/20 11:06:03;;;;;;;1.40;1.30;;;;;;;;;;12651890;28;20058;-83
2022/06/20 11:12:23;;;;;;;1.55;1.45;;;;;;;;;;12699218;28;20043;-79
2022/06/20 11:18:54;;;;;;;1.67;1.52;;;;;;;;;;12708369;28;20040;-79
2022/06/20 11:25:02;;;;;;;2.35;1.50;;;;;;;;;;12665023;28;20046;-79
2022/06/20 11:31:07;;;;;;;1.92;1.77;;;;;;;;;;12700771;28;20038;-84
2022/06/20 11:37:33;;;;;;;1.45;1.35;;;;;;;;;;12698616;28;20530;-84
2022/06/20 11:43:44;;;;;;;2.30;2.10;;;;;;;;;;12682769;28;20031;-79
2022/06/20 11:49:45;;;;;;;;;;;;;;;;;;12662521;28;20040;-85
2022/06/20 11:55:47;;;;;;;1.98;1.77;;;;;;;;;;12704738;28;19915;-79
2022/06/20 12:02:12;;;;;;;1.42;1.35;;;;;;;;;;12680542;28;20024;-80
2022/06/20 12:08:37;;;;;;;1.33;1.20;;;;;;;;;;12662444;28;20047;-83
2022/06/20 12:14:57;;;;;;;1.30;1.20;;;;;;;;;;12688199;28;20035;-84
2022/06/20 12:27:22;;;;;;;1.85;1.70;;;;;;;;;;12692950;28;20031;-84
2022/06/20 12:33:25;;;;;;;1.80;1.70;;;;;;;;;;12689915;28;20392;-81
2022/06/20 12:39:31;;;;;;;1.65;1.10;;;;;;;;;;12703799;28;20058;-79
2022/06/20 12:45:45;;;;;;;2.15;1.83;;;;;;;;;;12688834;28;20027;-79
2022/06/20 12:52:04;;;;;;;2.65;1.80;;;;;;;;;;12687255;28;20376;-80
2022/06/20 12:58:26;;;;;;;2.22;1.70;;;;;;;;;;12710772;28;20032;-85
2022/06/20 13:04:54;;;;;;;2.92;2.30;;;;;;;;;;12706565;28;20043;-80
2022/06/20 13:10:59;;;;;;;1.70;1.60;;;;;;;;;;12698139;28;20502;-83
2022/06/20 13:17:01;;;;;;;1.80;1.70;;;;;;;;;;12704663;28;20031;-84
2022/06/20 13:23:15;;;;;;;1.30;1.30;;;;;;;;;;12703819;28;20395;-79
2022/06/20 13:29:35;;;;;;;3.45;2.40;;;;;;;;;;12704956;28;20051;-81
2022/06/20 13:35:46;;;;;;;2.03;1.90;;;;;;;;;;12704055;28;20036;-84
2022/06/20 13:42:02;;;;;;;2.55;2.15;;;;;;;;;;12619536;28;20056;-80
2022/06/20 13:48:06;;;;;;;2.35;1.80;;;;;;;;;;12651261;28;20048;-84
2022/06/20 13:54:15;;;;;;;2.00;1.55;;;;;;;;;;12619642;28;20487;-81
2022/06/20 14:00:17;;;;;;;1.90;1.67;;;;;;;;;;12630973;28;20529;-84
2022/06/20 14:06:20;;;;;;;2.72;1.67;;;;;;;;;;12634462;28;20119;-82
2022/06/20 14:12:25;;;;;;;2.45;1.60;;;;;;;;;;12646999;28;20035;-78
2022/06/20 14:18:29;;;;;;;1.92;1.77;;;;;;;;;;12682779;28;20383;-80
2022/06/20 14:24:38;;;;;;;1.83;1.48;;;;;;;;;;12700625;28;20032;-80
2022/06/20 14:30:39;;;;;;;4.43;1.50;;;;;;;;;;12700050;28;20055;-84
2022/06/20 14:36:41;;;;;;;3.28;1.55;;;;;;;;;;12701619;28;20087;-84
2022/06/20 14:42:49;;;;;;;2.85;1.40;;;;;;;;;;12699461;28;20042;-80
2022/06/20 14:48:51;;;;;;;2.55;1.10;;;;;;;;;;12680070;28;20042;-81
2022/06/20 14:55:02;;;;;;;2.80;1.40;;;;;;;;;;12679254;28;20502;-81
2022/06/20 15:01:07;;;;;;;1.88;1.15;;;;;;;;;;12698496;28;20392;-84
2022/06/20 15:07:24;;;;;;;2.25;1.70;;;;;;;;;;12668088;28;20685;-81
2022/06/20 15:13:40;;;;;;;1.80;1.52;;;;;;;;;;12687317;28;20039;-85
2022/06/20 15:19:59;;;;;;;3.55;1.90;;;;;;;;;;12668180;28;20032;-85
2022/06/20 15:26:00;;;;;;;3.33;1.35;;;;;;;;;;12682362;28;20031;-80
2022/06/20 15:32:04;;;;;;;2.75;1.40;;;;;;;;;;12703190;28;20040;-84
2022/06/20 15:38:26;;;;;;;2.78;1.70;;;;;;;;;;12684417;28;20067;-85
2022/06/20 15:44:37;;;;;;;2.78;1.73;;;;;;;;;;12666916;28;20042;-85
2022/06/20 15:50:44;;;;;;;1.65;1.55;;;;;;;;;;12708304;28;20043;-79
2022/06/20 15:56:49;;;;;;;1.52;1.33;;;;;;;;;;12691573;28;20031;-84
2022/06/20 16:03:09;;;;;;;3.05;1.33;;;;;;;;;;12710324;28;20028;-80
2022/06/20 16:09:14;;;;;;;2.67;1.60;;;;;;;;;;12693198;28;20044;-80
2022/06/20 16:15:23;;;;;;;2.53;1.27;;;;;;;;;;12705870;28;20031;-80
2022/06/20 16:21:27;;;;;;;4.30;1.90;;;;;;;;;;12705976;28;20038;-80
2022/06/20 16:27:33;;;;;;;1.42;1.33;;;;;;;;;;12706102;28;20031;-86
2022/06/20 16:33:40;;;;;;;2.33;1.10;;;;;;;;;;12670798;28;20036;-86
2022/06/20 16:39:42;;;;;;;3.72;1.45;;;;;;;;;;12689398;28;20058;-85
2022/06/20 16:45:45;;;;;;;1.25;1.08;;;;;;;;;;12694989;28;20042;-85
2022/06/20 16:52:05;;;;;;;2.13;1.08;;;;;;;;;;12717534;28;20036;-86
2022/06/20 16:58:12;;;;;;;1.55;1.25;;;;;;;;;;12672409;28;20031;-86
2022/06/20 17:04:34;;;;;;;1.52;1.30;;;;;;;;;;12702356;28;20036;-80
2022/06/20 17:10:48;;;;;;;2.15;1.20;;;;;;;;;;12643523;28;20056;-80
2022/06/20 17:16:50;;;;;;;2.20;1.40;;;;;;;;;;12706199;28;20039;-80
2022/06/20 17:23:10;;;;;;;1.83;1.73;;;;;;;;;;12712524;28;20028;-80
2022/06/20 17:29:12;;;;;;;2.33;1.75;;;;;;;;;;12702812;28;20043;-86
2022/06/20 17:35:35;;;;;;;1.92;1.70;;;;;;;;;;12687013;28;20035;-80
2022/06/20 17:41:43;;;;;;;1.67;1.58;;;;;;;;;;12701883;28;20060;-80
2022/06/20 17:47:51;;;;;;;2.03;1.63;;;;;;;;;;12681714;28;20043;-80
2022/06/20 17:54:12;;;;;;;2.30;1.77;;;;;;;;;;12681542;28;20050;-80
2022/06/20 18:00:17;;;;;;;2.20;2.10;;;;;;;;;;12682972;28;20036;-85
2022/06/20 18:06:21;;;;;;;2.50;1.80;;;;;;;;;;12674975;28;20027;-79
2022/06/20 18:12:32;;;;;;;2.88;2.45;;;;;;;;;;12696008;28;20031;-80
2022/06/20 18:18:34;;;;;;;3.78;2.40;;;;;;;;;;12698631;28;20391;-81
2022/06/20 18:24:44;;;;;;;2.50;2.30;;;;;;;;;;12680200;28;20485;-80
2022/06/20 18:30:51;;;;;;;3.03;2.72;;;;;;;;;;12662237;28;20048;-80
2022/06/20 18:37:12;;;;;;;2.90;2.20;;;;;;;;;;12678960;28;20051;-79
2022/06/20 18:43:15;;;;;;;3.03;2.50;;;;;;;;;;12697933;28;20043;-85
2022/06/20 18:49:33;;;;;;;5.05;2.70;;;;;;;;;;12679330;28;20785;-80
2022/06/20 18:56:07;;;;;;;3.67;1.80;;;;;;;;;;12698287;28;20031;-85
2022/06/20 19:02:28;;;;;;;2.22;1.85;;;;;;;;;;12656624;28;20046;-86
2022/06/20 19:08:42;;;;;;;4.43;2.20;;;;;;;;;;12680434;28;20063;-87
2022/06/20 19:14:55;;;;;;;2.13;1.85;;;;;;;;;;12699254;28;20028;-86
2022/06/20 19:21:09;;;;;;;3.00;2.42;;;;;;;;;;12663698;28;20027;-80
2022/06/20 19:27:13;;;;;;;2.65;1.85;;;;;;;;;;12705573;28;20384;-86
2022/06/20 19:33:18;;;;;;;2.00;1.90;;;;;;;;;;12703265;28;20372;-86
2022/06/20 19:39:29;;;;;;;1.75;1.65;;;;;;;;;;12705278;28;20051;-84
2022/06/20 19:45:31;;;;;;;2.17;1.88;;;;;;;;;;12706451;28;20046;-86
2022/06/20 19:51:33;;;;;;;2.10;1.90;;;;;;;;;;12704676;28;20048;-86
2022/06/20 19:57:38;;;;;;;3.03;1.70;;;;;;;;;;12702460;28;20031;-86
2022/06/20 20:04:00;;;;;;;2.38;1.60;;;;;;;;;;12688201;28;20400;-87
2022/06/20 20:10:04;;;;;;;2.13;1.92;;;;;;;;;;12662848;28;20062;-86
2022/06/20 20:16:08;;;;;;;1.98;1.88;;;;;;;;;;12669297;28;20036;-80
2022/06/20 20:22:19;;;;;;;1.77;1.67;;;;;;;;;;12701302;28;20043;-80
2022/06/20 20:28:26;;;;;;;1.70;1.60;;;;;;;;;;12678387;28;20040;-80
2022/06/20 20:34:27;;;;;;;2.75;1.80;;;;;;;;;;12678369;28;20468;-87
2022/06/20 20:40:56;;;;;;;2.63;2.35;;;;;;;;;;12688231;28;20048;-79
2022/06/20 20:47:06;;;;;;;1.95;1.85;;;;;;;;;;12685814;28;20097;-86
2022/06/20 20:53:10;;;;;;;;;;;;;;;;;;12703916;28;20399;-80
2022/06/20 20:59:16;;;;;;;2.08;1.88;;;;;;;;;;12702258;28;19908;-80
2022/06/20 21:05:20;;;;;;;1.88;1.70;;;;;;;;;;12702615;28;20032;-79
2022/06/20 21:11:31;;;;;;;2.78;2.00;;;;;;;;;;12686126;28;20048;-79
2022/06/20 21:17:32;;;;;;;;;;;;;;;;;;12686468;28;20480;-80
2022/06/20 21:23:45;;;;;;;2.00;1.90;;;;;;;;;;12683969;28;19908;-80
2022/06/20 21:29:49;;;;;;;2.85;2.03;;;;;;;;;;12685186;28;20043;-80
2022/06/20 21:35:52;;;;;;;2.60;2.40;;;;;;;;;;12703034;28;20042;-80
2022/06/20 21:42:00;;;;;;;2.30;2.10;;;;;;;;;;12633755;28;20043;-80
2022/06/20 21:48:02;;;;;;;1.80;1.70;;;;;;;;;;12656888;28;20067;-80
2022/06/20 21:54:11;;;;;;;3.03;2.40;;;;;;;;;;12635302;28;20032;-86
2022/06/20 22:00:14;;;;;;;2.20;2.10;;;;;;;;;;12614887;28;20040;-80
2022/06/20 22:06:20;;;;;;;2.45;1.95;;;;;;;;;;12614052;28;20043;-81
2022/06/20 22:12:23;;;;;;;2.10;1.77;;;;;;;;;;12648782;28;20051;-80
2022/06/20 22:18:28;;;;;;;2.30;2.10;;;;;;;;;;12648211;28;20031;-80
2022/06/20 22:24:31;;;;;;;2.75;2.28;;;;;;;;;;12630151;28;20025;-80
2022/06/20 22:30:39;;;;;;;3.53;3.10;;;;;;;;;;12614105;28;20040;-79
2022/06/20 22:36:43;;;;;;;2.30;2.10;;;;;;;;;;12613117;28;20048;-79
2022/06/20 22:42:49;;;;;;;2.88;2.67;;;;;;;;;;12648376;28;20036;-80
2022/06/20 22:48:53;;;;;;;2.88;2.35;;;;;;;;;;12659787;28;20412;-80
2022/06/20 22:54:58;;;;;;;2.40;2.20;;;;;;;;;;12718654;28;20030;-87
2022/06/20 23:01:29;;;;;;;3.92;2.88;;;;;;;;;;12671835;28;20027;-87
2022/06/20 23:07:31;;;;;;;2.92;2.72;;;;;;;;;;12688612;28;20513;-85
2022/06/20 23:13:37;;;;;;;2.40;2.20;;;;;;;;;;12685301;28;20032;-85
2022/06/20 23:19:40;;;;;;;2.70;2.50;;;;;;;;;;12702769;28;20483;-80
2022/06/20 23:25:42;;;;;;;1.83;1.73;;;;;;;;;;12699149;28;20032;-86
2022/06/20 23:31:46;;;;;;;2.08;1.98;;;;;;;;;;12685635;28;20053;-80
2022/06/20 23:37:51;;;;;;;1.92;1.77;;;;;;;;;;12700845;28;20052;-86
2022/06/20 23:43:53;;;;;;;2.28;1.90;;;;;;;;;;12662415;28;20031;-80
2022/06/20 23:49:54;;;;;;;2.35;2.08;;;;;;;;;;12681568;28;20039;-86
2022/06/20 23:55:59;;;;;;;2.45;1.95;;;;;;;;;;12665535;28;20043;-80
